sensor_id;sensor_type;location;lat;lon;timestamp;P1;durP1;ratioP1;P2;durP2;ratioP2
9763;SDS011;4921;43.214;27.936;2023-01-29T00:01:32;12.87;;;9.10;;
9763;SDS011;4921;43.214;27.936;2023-01-29T00:03:59;11.47;;;9.10;;
9763;SDS011;4921;43.214;27.936;2023-01-29T00:06:28;10.20;;;8.30;;
9763;SDS011;4921;43.214;27.936;2023-01-29T00:08:55;10.40;;;8.13;;
9763;SDS011;4921;43.214;27.936;2023-01-29T00:11:22;9.23;;;7.70;;
9763;SDS011;4921;43.214;27.936;2023-01-29T00:13:49;9.83;;;8.53;;
9763;SDS011;4921;43.214;27.936;2023-01-29T00:16:16;10.73;;;8.07;;
9763;SDS011;4921;43.214;27.936;2023-01-29T00:18:43;10.07;;;7.97;;
9763;SDS011;4921;43.214;27.936;2023-01-29T00:21:11;9.03;;;7.83;;
9763;SDS011;4921;43.214;27.936;2023-01-29T00:23:41;10.10;;;7.97;;
9763;SDS011;4921;43.214;27.936;2023-01-29T00:26:08;10.30;;;8.13;;
9763;SDS011;4921;43.214;27.936;2023-01-29T00:28:36;9.90;;;8.07;;
9763;SDS011;4921;43.214;27.936;2023-01-29T00:31:07;10.13;;;8.13;;
9763;SDS011;4921;43.214;27.936;2023-01-29T00:33:34;10.20;;;8.03;;
9763;SDS011;4921;43.214;27.936;2023-01-29T00:36:02;11.47;;;8.03;;
9763;SDS011;4921;43.214;27.936;2023-01-29T00:38:30;10.13;;;7.57;;
9763;SDS011;4921;43.214;27.936;2023-01-29T00:41:03;12.50;;;8.00;;
9763;SDS011;4921;43.214;27.936;2023-01-29T00:43:48;9.53;;;7.70;;
9763;SDS011;4921;43.214;27.936;2023-01-29T00:46:33;10.17;;;7.63;;
9763;SDS011;4921;43.214;27.936;2023-01-29T00:49:00;9.37;;;7.40;;
9763;SDS011;4921;43.214;27.936;2023-01-29T00:51:26;9.80;;;7.60;;
9763;SDS011;4921;43.214;27.936;2023-01-29T00:53:53;11.13;;;7.57;;
9763;SDS011;4921;43.214;27.936;2023-01-29T00:56:24;8.53;;;6.40;;
9763;SDS011;4921;43.214;27.936;2023-01-29T00:58:51;9.20;;;6.13;;
9763;SDS011;4921;43.214;27.936;2023-01-29T01:01:18;9.33;;;6.87;;
9763;SDS011;4921;43.214;27.936;2023-01-29T01:04:06;7.40;;;6.20;;
9763;SDS011;4921;43.214;27.936;2023-01-29T01:06:35;7.30;;;6.10;;
9763;SDS011;4921;43.214;27.936;2023-01-29T01:09:02;7.27;;;6.00;;
9763;SDS011;4921;43.214;27.936;2023-01-29T01:11:53;6.97;;;5.70;;
9763;SDS011;4921;43.214;27.936;2023-01-29T01:14:20;6.57;;;5.50;;
9763;SDS011;4921;43.214;27.936;2023-01-29T01:16:48;6.30;;;5.53;;
9763;SDS011;4921;43.214;27.936;2023-01-29T01:19:15;6.07;;;4.90;;
9763;SDS011;4921;43.214;27.936;2023-01-29T01:21:42;5.97;;;4.63;;
9763;SDS011;4921;43.214;27.936;2023-01-29T01:24:12;5.63;;;4.90;;
9763;SDS011;4921;43.214;27.936;2023-01-29T01:26:39;5.50;;;4.90;;
9763;SDS011;4921;43.214;27.936;2023-01-29T01:29:07;5.63;;;4.90;;
9763;SDS011;4921;43.214;27.936;2023-01-29T01:31:34;5.43;;;4.60;;
9763;SDS011;4921;43.214;27.936;2023-01-29T01:34:01;5.33;;;4.80;;
9763;SDS011;4921;43.214;27.936;2023-01-29T01:36:28;5.70;;;5.10;;
9763;SDS011;4921;43.214;27.936;2023-01-29T01:38:57;5.27;;;4.43;;
9763;SDS011;4921;43.214;27.936;2023-01-29T01:41:24;5.63;;;4.97;;
9763;SDS011;4921;43.214;27.936;2023-01-29T01:43:52;5.90;;;4.47;;
9763;SDS011;4921;43.214;27.936;2023-01-29T01:46:23;6.03;;;4.87;;
9763;SDS011;4921;43.214;27.936;2023-01-29T01:48:51;6.50;;;5.10;;
9763;SDS011;4921;43.214;27.936;2023-01-29T01:51:21;5.20;;;4.53;;
9763;SDS011;4921;43.214;27.936;2023-01-29T01:53:51;6.33;;;5.20;;
9763;SDS011;4921;43.214;27.936;2023-01-29T01:56:24;5.77;;;4.93;;
9763;SDS011;4921;43.214;27.936;2023-01-29T01:59:02;5.77;;;4.80;;
9763;SDS011;4921;43.214;27.936;2023-01-29T02:01:33;5.30;;;4.80;;
9763;SDS011;4921;43.214;27.936;2023-01-29T02:04:04;5.37;;;4.60;;
9763;SDS011;4921;43.214;27.936;2023-01-29T02:06:51;6.13;;;5.47;;
9763;SDS011;4921;43.214;27.936;2023-01-29T02:09:38;6.60;;;5.03;;
9763;SDS011;4921;43.214;27.936;2023-01-29T02:12:11;5.77;;;4.97;;
9763;SDS011;4921;43.214;27.936;2023-01-29T02:14:40;5.83;;;5.23;;
9763;SDS011;4921;43.214;27.936;2023-01-29T02:17:11;7.10;;;5.57;;
9763;SDS011;4921;43.214;27.936;2023-01-29T02:19:42;7.60;;;5.37;;
9763;SDS011;4921;43.214;27.936;2023-01-29T02:28:39;5.83;;;5.23;;
9763;SDS011;4921;43.214;27.936;2023-01-29T02:31:15;6.43;;;5.47;;
9763;SDS011;4921;43.214;27.936;2023-01-29T02:33:55;5.83;;;4.67;;
9763;SDS011;4921;43.214;27.936;2023-01-29T02:36:34;6.97;;;5.23;;
9763;SDS011;4921;43.214;27.936;2023-01-29T02:39:13;5.63;;;4.97;;
9763;SDS011;4921;43.214;27.936;2023-01-29T02:41:48;5.77;;;4.70;;
9763;SDS011;4921;43.214;27.936;2023-01-29T02:44:23;6.27;;;5.43;;
9763;SDS011;4921;43.214;27.936;2023-01-29T02:46:59;5.30;;;4.80;;
9763;SDS011;4921;43.214;27.936;2023-01-29T02:49:30;5.77;;;4.47;;
9763;SDS011;4921;43.214;27.936;2023-01-29T02:52:02;4.97;;;4.47;;
9763;SDS011;4921;43.214;27.936;2023-01-29T02:54:36;6.30;;;5.30;;
9763;SDS011;4921;43.214;27.936;2023-01-29T02:57:08;7.43;;;5.80;;
9763;SDS011;4921;43.214;27.936;2023-01-29T02:59:45;6.97;;;5.60;;
9763;SDS011;4921;43.214;27.936;2023-01-29T03:02:17;7.43;;;6.23;;
9763;SDS011;4921;43.214;27.936;2023-01-29T03:04:51;9.27;;;6.03;;
9763;SDS011;4921;43.214;27.936;2023-01-29T03:07:24;7.70;;;6.47;;
9763;SDS011;4921;43.214;27.936;2023-01-29T03:10:12;8.00;;;6.53;;
9763;SDS011;4921;43.214;27.936;2023-01-29T03:12:44;7.93;;;6.07;;
9763;SDS011;4921;43.214;27.936;2023-01-29T03:15:17;9.47;;;7.00;;
9763;SDS011;4921;43.214;27.936;2023-01-29T03:17:51;6.67;;;5.97;;
9763;SDS011;4921;43.214;27.936;2023-01-29T03:20:22;8.10;;;6.00;;
9763;SDS011;4921;43.214;27.936;2023-01-29T03:22:55;6.70;;;5.93;;
9763;SDS011;4921;43.214;27.936;2023-01-29T03:25:25;9.43;;;6.60;;
9763;SDS011;4921;43.214;27.936;2023-01-29T03:28:12;8.60;;;6.03;;
9763;SDS011;4921;43.214;27.936;2023-01-29T03:31:02;9.23;;;6.27;;
9763;SDS011;4921;43.214;27.936;2023-01-29T03:33:49;9.20;;;6.53;;
9763;SDS011;4921;43.214;27.936;2023-01-29T03:36:20;7.57;;;6.03;;
9763;SDS011;4921;43.214;27.936;2023-01-29T03:39:02;9.17;;;6.67;;
9763;SDS011;4921;43.214;27.936;2023-01-29T03:41:30;8.03;;;6.57;;
9763;SDS011;4921;43.214;27.936;2023-01-29T03:44:02;8.77;;;6.70;;
9763;SDS011;4921;43.214;27.936;2023-01-29T03:46:43;9.53;;;6.60;;
9763;SDS011;4921;43.214;27.936;2023-01-29T03:49:17;8.83;;;7.00;;
9763;SDS011;4921;43.214;27.936;2023-01-29T03:51:54;10.73;;;6.17;;
9763;SDS011;4921;43.214;27.936;2023-01-29T03:54:27;8.93;;;7.00;;
9763;SDS011;4921;43.214;27.936;2023-01-29T03:57:05;8.37;;;6.77;;
9763;SDS011;4921;43.214;27.936;2023-01-29T03:59:43;9.03;;;7.07;;
9763;SDS011;4921;43.214;27.936;2023-01-29T04:02:19;7.77;;;6.10;;
9763;SDS011;4921;43.214;27.936;2023-01-29T04:04:52;19.43;;;7.40;;
9763;SDS011;4921;43.214;27.936;2023-01-29T04:07:22;8.53;;;6.97;;
9763;SDS011;4921;43.214;27.936;2023-01-29T04:09:52;9.10;;;6.73;;
9763;SDS011;4921;43.214;27.936;2023-01-29T04:12:24;8.97;;;6.40;;
9763;SDS011;4921;43.214;27.936;2023-01-29T04:14:55;10.03;;;7.10;;
9763;SDS011;4921;43.214;27.936;2023-01-29T04:17:29;8.33;;;6.80;;
9763;SDS011;4921;43.214;27.936;2023-01-29T04:20:00;10.23;;;6.90;;
9763;SDS011;4921;43.214;27.936;2023-01-29T04:22:29;9.60;;;7.07;;
9763;SDS011;4921;43.214;27.936;2023-01-29T04:24:58;9.73;;;6.83;;
9763;SDS011;4921;43.214;27.936;2023-01-29T04:27:34;9.67;;;7.13;;
9763;SDS011;4921;43.214;27.936;2023-01-29T04:30:12;9.90;;;7.90;;
9763;SDS011;4921;43.214;27.936;2023-01-29T04:32:53;9.63;;;7.10;;
9763;SDS011;4921;43.214;27.936;2023-01-29T04:35:28;9.10;;;6.90;;
9763;SDS011;4921;43.214;27.936;2023-01-29T04:38:01;10.20;;;7.37;;
9763;SDS011;4921;43.214;27.936;2023-01-29T04:40:38;9.57;;;7.43;;
9763;SDS011;4921;43.214;27.936;2023-01-29T04:43:15;9.27;;;7.20;;
9763;SDS011;4921;43.214;27.936;2023-01-29T04:45:49;8.93;;;7.10;;
9763;SDS011;4921;43.214;27.936;2023-01-29T04:48:31;9.30;;;7.77;;
9763;SDS011;4921;43.214;27.936;2023-01-29T04:51:09;7.97;;;6.60;;
9763;SDS011;4921;43.214;27.936;2023-01-29T04:53:44;9.30;;;7.30;;
9763;SDS011;4921;43.214;27.936;2023-01-29T04:56:17;9.90;;;7.33;;
9763;SDS011;4921;43.214;27.936;2023-01-29T04:58:52;8.10;;;6.60;;
9763;SDS011;4921;43.214;27.936;2023-01-29T05:01:23;7.77;;;6.47;;
9763;SDS011;4921;43.214;27.936;2023-01-29T05:03:58;9.70;;;6.83;;
9763;SDS011;4921;43.214;27.936;2023-01-29T05:06:28;10.77;;;7.50;;
9763;SDS011;4921;43.214;27.936;2023-01-29T05:08:57;8.03;;;7.00;;
9763;SDS011;4921;43.214;27.936;2023-01-29T05:11:26;7.77;;;6.73;;
9763;SDS011;4921;43.214;27.936;2023-01-29T05:13:55;7.93;;;6.93;;
9763;SDS011;4921;43.214;27.936;2023-01-29T05:16:24;8.60;;;7.03;;
9763;SDS011;4921;43.214;27.936;2023-01-29T05:18:53;8.57;;;6.90;;
9763;SDS011;4921;43.214;27.936;2023-01-29T05:21:22;9.07;;;6.53;;
9763;SDS011;4921;43.214;27.936;2023-01-29T05:24:04;8.37;;;6.53;;
9763;SDS011;4921;43.214;27.936;2023-01-29T05:26:32;7.87;;;6.67;;
9763;SDS011;4921;43.214;27.936;2023-01-29T05:29:17;7.47;;;6.23;;
9763;SDS011;4921;43.214;27.936;2023-01-29T05:31:44;7.60;;;6.10;;
9763;SDS011;4921;43.214;27.936;2023-01-29T05:34:11;6.33;;;5.67;;
9763;SDS011;4921;43.214;27.936;2023-01-29T05:36:39;7.13;;;5.57;;
9763;SDS011;4921;43.214;27.936;2023-01-29T05:39:06;8.73;;;6.47;;
9763;SDS011;4921;43.214;27.936;2023-01-29T05:41:33;7.87;;;6.43;;
9763;SDS011;4921;43.214;27.936;2023-01-29T05:44:00;7.77;;;6.17;;
9763;SDS011;4921;43.214;27.936;2023-01-29T05:46:27;7.07;;;5.77;;
9763;SDS011;4921;43.214;27.936;2023-01-29T05:48:54;7.07;;;6.20;;
9763;SDS011;4921;43.214;27.936;2023-01-29T05:51:21;7.83;;;6.37;;
9763;SDS011;4921;43.214;27.936;2023-01-29T05:53:49;8.20;;;6.13;;
9763;SDS011;4921;43.214;27.936;2023-01-29T05:56:16;7.33;;;5.93;;
9763;SDS011;4921;43.214;27.936;2023-01-29T05:58:43;7.80;;;6.97;;
9763;SDS011;4921;43.214;27.936;2023-01-29T06:01:12;6.80;;;6.00;;
9763;SDS011;4921;43.214;27.936;2023-01-29T06:03:40;7.10;;;6.23;;
9763;SDS011;4921;43.214;27.936;2023-01-29T06:06:08;6.33;;;5.73;;
9763;SDS011;4921;43.214;27.936;2023-01-29T06:08:35;7.97;;;5.93;;
9763;SDS011;4921;43.214;27.936;2023-01-29T06:11:05;6.60;;;6.00;;
9763;SDS011;4921;43.214;27.936;2023-01-29T06:13:33;6.90;;;5.60;;
9763;SDS011;4921;43.214;27.936;2023-01-29T06:16:03;6.97;;;6.07;;
9763;SDS011;4921;43.214;27.936;2023-01-29T06:18:30;7.27;;;5.90;;
9763;SDS011;4921;43.214;27.936;2023-01-29T06:20:59;6.53;;;5.93;;
9763;SDS011;4921;43.214;27.936;2023-01-29T06:23:26;6.87;;;6.00;;
9763;SDS011;4921;43.214;27.936;2023-01-29T06:25:57;6.07;;;5.43;;
9763;SDS011;4921;43.214;27.936;2023-01-29T06:28:26;7.73;;;5.97;;
9763;SDS011;4921;43.214;27.936;2023-01-29T06:30:55;7.83;;;6.30;;
9763;SDS011;4921;43.214;27.936;2023-01-29T06:33:23;8.67;;;6.23;;
9763;SDS011;4921;43.214;27.936;2023-01-29T06:35:54;7.47;;;6.33;;
9763;SDS011;4921;43.214;27.936;2023-01-29T06:38:22;8.27;;;6.30;;
9763;SDS011;4921;43.214;27.936;2023-01-29T06:40:49;7.20;;;6.30;;
9763;SDS011;4921;43.214;27.936;2023-01-29T06:43:16;8.17;;;6.30;;
9763;SDS011;4921;43.214;27.936;2023-01-29T06:45:48;8.50;;;6.37;;
9763;SDS011;4921;43.214;27.936;2023-01-29T06:48:16;8.83;;;6.83;;
9763;SDS011;4921;43.214;27.936;2023-01-29T06:50:43;8.53;;;6.63;;
9763;SDS011;4921;43.214;27.936;2023-01-29T06:53:11;8.47;;;6.80;;
9763;SDS011;4921;43.214;27.936;2023-01-29T06:55:38;8.70;;;6.37;;
9763;SDS011;4921;43.214;27.936;2023-01-29T06:58:05;8.97;;;6.80;;
9763;SDS011;4921;43.214;27.936;2023-01-29T07:00:33;9.60;;;6.73;;
9763;SDS011;4921;43.214;27.936;2023-01-29T07:03:02;9.30;;;6.87;;
9763;SDS011;4921;43.214;27.936;2023-01-29T07:05:30;10.47;;;6.67;;
9763;SDS011;4921;43.214;27.936;2023-01-29T07:07:57;9.10;;;6.87;;
9763;SDS011;4921;43.214;27.936;2023-01-29T07:10:24;8.33;;;6.67;;
9763;SDS011;4921;43.214;27.936;2023-01-29T07:12:51;8.50;;;6.63;;
9763;SDS011;4921;43.214;27.936;2023-01-29T07:15:18;8.27;;;6.50;;
9763;SDS011;4921;43.214;27.936;2023-01-29T07:17:54;7.77;;;6.60;;
9763;SDS011;4921;43.214;27.936;2023-01-29T07:20:24;8.43;;;6.27;;
9763;SDS011;4921;43.214;27.936;2023-01-29T07:22:51;8.63;;;6.67;;
9763;SDS011;4921;43.214;27.936;2023-01-29T07:25:18;8.93;;;7.20;;
9763;SDS011;4921;43.214;27.936;2023-01-29T07:27:45;8.13;;;5.97;;
9763;SDS011;4921;43.214;27.936;2023-01-29T07:30:13;8.80;;;6.37;;
9763;SDS011;4921;43.214;27.936;2023-01-29T07:32:40;8.80;;;5.90;;
9763;SDS011;4921;43.214;27.936;2023-01-29T07:35:07;8.67;;;6.87;;
9763;SDS011;4921;43.214;27.936;2023-01-29T07:37:36;7.90;;;6.27;;
9763;SDS011;4921;43.214;27.936;2023-01-29T07:40:03;8.43;;;6.17;;
9763;SDS011;4921;43.214;27.936;2023-01-29T07:42:35;7.77;;;6.23;;
9763;SDS011;4921;43.214;27.936;2023-01-29T07:45:03;8.27;;;6.30;;
9763;SDS011;4921;43.214;27.936;2023-01-29T07:47:30;7.07;;;5.87;;
9763;SDS011;4921;43.214;27.936;2023-01-29T07:49:57;7.37;;;5.80;;
9763;SDS011;4921;43.214;27.936;2023-01-29T07:52:24;8.03;;;6.07;;
9763;SDS011;4921;43.214;27.936;2023-01-29T07:54:52;7.60;;;6.13;;
9763;SDS011;4921;43.214;27.936;2023-01-29T07:57:19;6.73;;;5.50;;
9763;SDS011;4921;43.214;27.936;2023-01-29T07:59:46;7.47;;;6.03;;
9763;SDS011;4921;43.214;27.936;2023-01-29T08:02:13;7.97;;;6.27;;
9763;SDS011;4921;43.214;27.936;2023-01-29T08:04:40;7.40;;;5.90;;
9763;SDS011;4921;43.214;27.936;2023-01-29T08:07:07;7.50;;;6.10;;
9763;SDS011;4921;43.214;27.936;2023-01-29T08:09:34;6.73;;;5.93;;
9763;SDS011;4921;43.214;27.936;2023-01-29T08:12:03;7.37;;;6.13;;
9763;SDS011;4921;43.214;27.936;2023-01-29T08:14:38;7.37;;;5.67;;
9763;SDS011;4921;43.214;27.936;2023-01-29T08:17:05;9.40;;;6.43;;
9763;SDS011;4921;43.214;27.936;2023-01-29T08:19:32;8.60;;;6.33;;
9763;SDS011;4921;43.214;27.936;2023-01-29T08:21:59;8.37;;;5.77;;
9763;SDS011;4921;43.214;27.936;2023-01-29T08:24:26;7.13;;;6.13;;
9763;SDS011;4921;43.214;27.936;2023-01-29T08:26:53;7.50;;;5.83;;
9763;SDS011;4921;43.214;27.936;2023-01-29T08:29:21;7.70;;;6.00;;
9763;SDS011;4921;43.214;27.936;2023-01-29T08:31:48;8.57;;;6.43;;
9763;SDS011;4921;43.214;27.936;2023-01-29T08:34:15;7.00;;;5.40;;
9763;SDS011;4921;43.214;27.936;2023-01-29T08:36:42;8.30;;;6.33;;
9763;SDS011;4921;43.214;27.936;2023-01-29T08:39:09;6.97;;;5.70;;
9763;SDS011;4921;43.214;27.936;2023-01-29T08:41:35;8.13;;;6.40;;
9763;SDS011;4921;43.214;27.936;2023-01-29T08:44:02;7.50;;;5.80;;
9763;SDS011;4921;43.214;27.936;2023-01-29T08:46:31;6.50;;;5.80;;
9763;SDS011;4921;43.214;27.936;2023-01-29T08:48:58;9.63;;;6.93;;
9763;SDS011;4921;43.214;27.936;2023-01-29T08:51:25;9.63;;;6.13;;
9763;SDS011;4921;43.214;27.936;2023-01-29T08:53:52;7.20;;;5.63;;
9763;SDS011;4921;43.214;27.936;2023-01-29T08:56:19;7.43;;;5.77;;
9763;SDS011;4921;43.214;27.936;2023-01-29T08:58:46;7.40;;;5.80;;
9763;SDS011;4921;43.214;27.936;2023-01-29T09:01:13;6.90;;;5.77;;
9763;SDS011;4921;43.214;27.936;2023-01-29T09:03:41;7.37;;;5.43;;
9763;SDS011;4921;43.214;27.936;2023-01-29T09:06:09;8.07;;;5.77;;
9763;SDS011;4921;43.214;27.936;2023-01-29T09:08:37;7.33;;;6.00;;
9763;SDS011;4921;43.214;27.936;2023-01-29T09:11:04;8.27;;;5.20;;
9763;SDS011;4921;43.214;27.936;2023-01-29T09:13:32;7.60;;;5.77;;
9763;SDS011;4921;43.214;27.936;2023-01-29T09:15:59;8.90;;;6.17;;
9763;SDS011;4921;43.214;27.936;2023-01-29T09:18:26;7.03;;;5.77;;
9763;SDS011;4921;43.214;27.936;2023-01-29T09:20:55;7.87;;;5.83;;
9763;SDS011;4921;43.214;27.936;2023-01-29T09:25:57;7.50;;;5.53;;
9763;SDS011;4921;43.214;27.936;2023-01-29T09:31:00;7.07;;;5.53;;
9763;SDS011;4921;43.214;27.936;2023-01-29T09:33:28;7.67;;;5.43;;
9763;SDS011;4921;43.214;27.936;2023-01-29T09:43:35;9.20;;;7.00;;
9763;SDS011;4921;43.214;27.936;2023-01-29T09:46:11;8.63;;;6.60;;
9763;SDS011;4921;43.214;27.936;2023-01-29T09:48:51;7.40;;;5.50;;
9763;SDS011;4921;43.214;27.936;2023-01-29T09:56:34;6.23;;;5.40;;
9763;SDS011;4921;43.214;27.936;2023-01-29T10:01:39;6.87;;;5.83;;
9763;SDS011;4921;43.214;27.936;2023-01-29T10:07:00;7.37;;;5.33;;
9763;SDS011;4921;43.214;27.936;2023-01-29T10:09:48;7.90;;;5.83;;
9763;SDS011;4921;43.214;27.936;2023-01-29T10:12:41;7.50;;;6.07;;
9763;SDS011;4921;43.214;27.936;2023-01-29T10:15:23;6.53;;;5.27;;
9763;SDS011;4921;43.214;27.936;2023-01-29T10:18:23;8.13;;;6.03;;
9763;SDS011;4921;43.214;27.936;2023-01-29T10:21:04;7.07;;;5.60;;
9763;SDS011;4921;43.214;27.936;2023-01-29T10:26:15;8.93;;;6.37;;
9763;SDS011;4921;43.214;27.936;2023-01-29T10:31:28;8.43;;;6.30;;
9763;SDS011;4921;43.214;27.936;2023-01-29T10:33:59;7.97;;;5.50;;
9763;SDS011;4921;43.214;27.936;2023-01-29T10:36:32;8.67;;;5.97;;
9763;SDS011;4921;43.214;27.936;2023-01-29T10:39:04;7.70;;;6.13;;
9763;SDS011;4921;43.214;27.936;2023-01-29T10:41:43;8.13;;;6.03;;
9763;SDS011;4921;43.214;27.936;2023-01-29T10:44:30;7.67;;;6.00;;
9763;SDS011;4921;43.214;27.936;2023-01-29T10:58:33;8.27;;;6.20;;
9763;SDS011;4921;43.214;27.936;2023-01-29T11:01:25;8.50;;;5.60;;
9763;SDS011;4921;43.214;27.936;2023-01-29T11:06:53;10.83;;;6.47;;
9763;SDS011;4921;43.214;27.936;2023-01-29T11:09:29;7.97;;;6.20;;
9763;SDS011;4921;43.214;27.936;2023-01-29T11:12:02;10.43;;;6.20;;
9763;SDS011;4921;43.214;27.936;2023-01-29T11:14:41;8.27;;;5.97;;
9763;SDS011;4921;43.214;27.936;2023-01-29T11:17:19;9.33;;;6.80;;
9763;SDS011;4921;43.214;27.936;2023-01-29T11:19:48;9.47;;;6.60;;
9763;SDS011;4921;43.214;27.936;2023-01-29T11:22:21;9.17;;;6.37;;
9763;SDS011;4921;43.214;27.936;2023-01-29T11:25:08;8.40;;;6.70;;
9763;SDS011;4921;43.214;27.936;2023-01-29T11:27:42;9.07;;;7.13;;
9763;SDS011;4921;43.214;27.936;2023-01-29T11:30:14;8.67;;;7.23;;
9763;SDS011;4921;43.214;27.936;2023-01-29T11:32:48;9.63;;;6.83;;
9763;SDS011;4921;43.214;27.936;2023-01-29T11:35:19;10.53;;;7.03;;
9763;SDS011;4921;43.214;27.936;2023-01-29T11:37:49;8.90;;;6.70;;
9763;SDS011;4921;43.214;27.936;2023-01-29T11:45:56;10.97;;;7.73;;
9763;SDS011;4921;43.214;27.936;2023-01-29T11:48:27;13.10;;;7.27;;
9763;SDS011;4921;43.214;27.936;2023-01-29T11:50:59;10.90;;;7.53;;
9763;SDS011;4921;43.214;27.936;2023-01-29T11:53:33;11.50;;;7.60;;
9763;SDS011;4921;43.214;27.936;2023-01-29T11:56:03;12.13;;;7.00;;
9763;SDS011;4921;43.214;27.936;2023-01-29T11:58:42;11.03;;;7.57;;
9763;SDS011;4921;43.214;27.936;2023-01-29T12:01:10;10.53;;;7.27;;
9763;SDS011;4921;43.214;27.936;2023-01-29T12:03:38;10.73;;;7.93;;
9763;SDS011;4921;43.214;27.936;2023-01-29T12:06:13;10.63;;;7.23;;
9763;SDS011;4921;43.214;27.936;2023-01-29T12:08:51;8.77;;;6.30;;
9763;SDS011;4921;43.214;27.936;2023-01-29T12:11:24;11.57;;;7.80;;
9763;SDS011;4921;43.214;27.936;2023-01-29T12:13:54;11.17;;;7.87;;
9763;SDS011;4921;43.214;27.936;2023-01-29T12:16:22;10.20;;;7.00;;
9763;SDS011;4921;43.214;27.936;2023-01-29T12:18:54;9.97;;;6.70;;
9763;SDS011;4921;43.214;27.936;2023-01-29T12:21:29;9.83;;;7.13;;
9763;SDS011;4921;43.214;27.936;2023-01-29T12:24:09;8.33;;;6.87;;
9763;SDS011;4921;43.214;27.936;2023-01-29T12:26:45;10.00;;;7.60;;
9763;SDS011;4921;43.214;27.936;2023-01-29T12:29:20;9.53;;;7.03;;
9763;SDS011;4921;43.214;27.936;2023-01-29T12:31:58;9.70;;;6.10;;
9763;SDS011;4921;43.214;27.936;2023-01-29T12:34:35;10.33;;;6.50;;
9763;SDS011;4921;43.214;27.936;2023-01-29T12:37:11;10.60;;;6.97;;
9763;SDS011;4921;43.214;27.936;2023-01-29T12:39:46;8.63;;;6.50;;
9763;SDS011;4921;43.214;27.936;2023-01-29T12:42:16;8.90;;;6.60;;
9763;SDS011;4921;43.214;27.936;2023-01-29T12:44:47;10.30;;;6.83;;
9763;SDS011;4921;43.214;27.936;2023-01-29T12:47:19;9.67;;;6.53;;
9763;SDS011;4921;43.214;27.936;2023-01-29T12:49:50;9.07;;;6.60;;
9763;SDS011;4921;43.214;27.936;2023-01-29T12:52:20;9.57;;;6.70;;
9763;SDS011;4921;43.214;27.936;2023-01-29T12:54:56;8.30;;;6.70;;
9763;SDS011;4921;43.214;27.936;2023-01-29T12:57:28;9.90;;;6.03;;
9763;SDS011;4921;43.214;27.936;2023-01-29T13:00:04;8.77;;;6.80;;
9763;SDS011;4921;43.214;27.936;2023-01-29T13:02:36;9.50;;;6.97;;
9763;SDS011;4921;43.214;27.936;2023-01-29T13:05:14;10.97;;;7.20;;
9763;SDS011;4921;43.214;27.936;2023-01-29T13:07:48;8.00;;;6.87;;
9763;SDS011;4921;43.214;27.936;2023-01-29T13:10:24;11.03;;;7.40;;
9763;SDS011;4921;43.214;27.936;2023-01-29T13:12:56;8.77;;;7.40;;
9763;SDS011;4921;43.214;27.936;2023-01-29T13:15:28;9.63;;;6.83;;
9763;SDS011;4921;43.214;27.936;2023-01-29T13:18:01;9.73;;;6.80;;
9763;SDS011;4921;43.214;27.936;2023-01-29T13:20:46;8.90;;;6.80;;
9763;SDS011;4921;43.214;27.936;2023-01-29T13:23:16;8.87;;;6.73;;
9763;SDS011;4921;43.214;27.936;2023-01-29T13:25:49;13.17;;;7.87;;
9763;SDS011;4921;43.214;27.936;2023-01-29T13:28:17;9.57;;;7.57;;
9763;SDS011;4921;43.214;27.936;2023-01-29T13:30:50;8.27;;;6.63;;
9763;SDS011;4921;43.214;27.936;2023-01-29T13:33:36;8.23;;;6.60;;
9763;SDS011;4921;43.214;27.936;2023-01-29T13:36:06;7.77;;;6.30;;
9763;SDS011;4921;43.214;27.936;2023-01-29T13:38:41;9.77;;;6.40;;
9763;SDS011;4921;43.214;27.936;2023-01-29T13:41:11;9.93;;;6.73;;
9763;SDS011;4921;43.214;27.936;2023-01-29T13:43:40;8.53;;;6.70;;
9763;SDS011;4921;43.214;27.936;2023-01-29T13:46:14;8.13;;;6.53;;
9763;SDS011;4921;43.214;27.936;2023-01-29T13:48:45;6.97;;;6.20;;
9763;SDS011;4921;43.214;27.936;2023-01-29T13:51:15;9.53;;;6.33;;
9763;SDS011;4921;43.214;27.936;2023-01-29T13:53:51;8.30;;;6.63;;
9763;SDS011;4921;43.214;27.936;2023-01-29T13:56:40;9.40;;;6.93;;
9763;SDS011;4921;43.214;27.936;2023-01-29T13:59:21;8.67;;;6.13;;
9763;SDS011;4921;43.214;27.936;2023-01-29T14:01:59;8.80;;;6.37;;
9763;SDS011;4921;43.214;27.936;2023-01-29T14:04:29;8.80;;;6.73;;
9763;SDS011;4921;43.214;27.936;2023-01-29T14:06:58;8.90;;;5.87;;
9763;SDS011;4921;43.214;27.936;2023-01-29T14:12:40;6.53;;;5.67;;
9763;SDS011;4921;43.214;27.936;2023-01-29T14:15:16;6.70;;;5.97;;
9763;SDS011;4921;43.214;27.936;2023-01-29T14:17:55;7.93;;;6.63;;
9763;SDS011;4921;43.214;27.936;2023-01-29T14:20:57;10.13;;;6.73;;
9763;SDS011;4921;43.214;27.936;2023-01-29T14:23:52;8.57;;;6.20;;
9763;SDS011;4921;43.214;27.936;2023-01-29T14:26:25;9.30;;;6.63;;
9763;SDS011;4921;43.214;27.936;2023-01-29T14:28:57;8.83;;;6.20;;
9763;SDS011;4921;43.214;27.936;2023-01-29T14:31:40;8.90;;;6.13;;
9763;SDS011;4921;43.214;27.936;2023-01-29T14:34:13;8.13;;;6.43;;
9763;SDS011;4921;43.214;27.936;2023-01-29T14:36:46;10.07;;;6.27;;
9763;SDS011;4921;43.214;27.936;2023-01-29T14:39:20;7.80;;;6.80;;
9763;SDS011;4921;43.214;27.936;2023-01-29T14:41:50;6.80;;;6.10;;
9763;SDS011;4921;43.214;27.936;2023-01-29T14:47:52;11.90;;;7.17;;
9763;SDS011;4921;43.214;27.936;2023-01-29T14:50:38;8.63;;;6.37;;
9763;SDS011;4921;43.214;27.936;2023-01-29T14:53:12;8.90;;;7.33;;
9763;SDS011;4921;43.214;27.936;2023-01-29T14:55:44;9.73;;;7.40;;
9763;SDS011;4921;43.214;27.936;2023-01-29T14:58:16;10.87;;;7.43;;
9763;SDS011;4921;43.214;27.936;2023-01-29T15:00:49;9.50;;;7.17;;
9763;SDS011;4921;43.214;27.936;2023-01-29T15:03:21;10.40;;;6.73;;
9763;SDS011;4921;43.214;27.936;2023-01-29T15:05:55;9.40;;;7.13;;
9763;SDS011;4921;43.214;27.936;2023-01-29T15:08:26;9.90;;;7.20;;
9763;SDS011;4921;43.214;27.936;2023-01-29T15:10:58;10.77;;;7.10;;
9763;SDS011;4921;43.214;27.936;2023-01-29T15:13:59;12.10;;;7.27;;
9763;SDS011;4921;43.214;27.936;2023-01-29T15:16:34;10.10;;;7.37;;
9763;SDS011;4921;43.214;27.936;2023-01-29T15:19:14;10.93;;;7.60;;
9763;SDS011;4921;43.214;27.936;2023-01-29T15:22:06;9.47;;;7.70;;
9763;SDS011;4921;43.214;27.936;2023-01-29T15:24:35;11.00;;;7.57;;
9763;SDS011;4921;43.214;27.936;2023-01-29T15:27:02;10.90;;;7.43;;
9763;SDS011;4921;43.214;27.936;2023-01-29T15:29:31;11.23;;;7.97;;
9763;SDS011;4921;43.214;27.936;2023-01-29T15:31:58;10.20;;;8.00;;
9763;SDS011;4921;43.214;27.936;2023-01-29T15:34:27;11.43;;;7.77;;
9763;SDS011;4921;43.214;27.936;2023-01-29T15:36:55;10.47;;;7.57;;
9763;SDS011;4921;43.214;27.936;2023-01-29T15:39:23;10.40;;;7.70;;
9763;SDS011;4921;43.214;27.936;2023-01-29T15:42:03;10.33;;;7.73;;
9763;SDS011;4921;43.214;27.936;2023-01-29T15:44:36;10.80;;;8.20;;
9763;SDS011;4921;43.214;27.936;2023-01-29T15:47:10;12.43;;;8.13;;
9763;SDS011;4921;43.214;27.936;2023-01-29T15:49:40;12.57;;;9.07;;
9763;SDS011;4921;43.214;27.936;2023-01-29T15:52:08;10.70;;;7.67;;
9763;SDS011;4921;43.214;27.936;2023-01-29T15:54:42;9.07;;;7.33;;
9763;SDS011;4921;43.214;27.936;2023-01-29T15:57:12;11.07;;;7.20;;
9763;SDS011;4921;43.214;27.936;2023-01-29T15:59:45;12.23;;;8.57;;
9763;SDS011;4921;43.214;27.936;2023-01-29T16:02:28;11.33;;;8.53;;
9763;SDS011;4921;43.214;27.936;2023-01-29T16:05:03;11.93;;;7.87;;
9763;SDS011;4921;43.214;27.936;2023-01-29T16:07:32;10.07;;;7.97;;
9763;SDS011;4921;43.214;27.936;2023-01-29T16:10:02;9.77;;;8.00;;
9763;SDS011;4921;43.214;27.936;2023-01-29T16:12:31;12.83;;;8.57;;
9763;SDS011;4921;43.214;27.936;2023-01-29T16:14:59;12.20;;;9.03;;
9763;SDS011;4921;43.214;27.936;2023-01-29T16:17:29;13.17;;;8.63;;
9763;SDS011;4921;43.214;27.936;2023-01-29T16:19:59;12.90;;;9.43;;
9763;SDS011;4921;43.214;27.936;2023-01-29T16:22:29;12.37;;;8.87;;
9763;SDS011;4921;43.214;27.936;2023-01-29T16:25:00;11.57;;;8.53;;
9763;SDS011;4921;43.214;27.936;2023-01-29T16:27:28;12.03;;;8.67;;
9763;SDS011;4921;43.214;27.936;2023-01-29T16:29:57;10.33;;;8.27;;